sensor_id;sensor_type;location;lat;lon;timestamp;pressure;altitude;pressure_sealevel;temperature;humidity
9969;BME280;5025;48.890;9.278;2023-03-20T00:02:42;99008.00;;;10.59;84.46
9969;BME280;5025;48.890;9.278;2023-03-20T00:05:15;99014.47;;;10.58;84.75
9969;BME280;5025;48.890;9.278;2023-03-20T00:07:43;99010.25;;;10.63;84.20
9969;BME280;5025;48.890;9.278;2023-03-20T00:10:09;99012.88;;;10.51;84.25
9969;BME280;5025;48.890;9.278;2023-03-20T00:12:34;99012.22;;;10.55;84.09
9969;BME280;5025;48.890;9.278;2023-03-20T00:15:02;99018.44;;;10.56;84.30
9969;BME280;5025;48.890;9.278;2023-03-20T00:17:30;99016.31;;;10.58;84.01
9969;BME280;5025;48.890;9.278;2023-03-20T00:19:55;99015.06;;;10.61;83.88
9969;BME280;5025;48.890;9.278;2023-03-20T00:22:20;99017.31;;;10.64;83.17
9969;BME280;5025;48.890;9.278;2023-03-20T00:24:46;99014.41;;;10.65;83.63
9969;BME280;5025;48.890;9.278;2023-03-20T00:27:13;99018.53;;;10.68;83.65
9969;BME280;5025;48.890;9.278;2023-03-20T00:29:39;99014.75;;;10.69;83.20
9969;BME280;5025;48.890;9.278;2023-03-20T00:32:10;99019.94;;;10.70;83.24
9969;BME280;5025;48.890;9.278;2023-03-20T00:34:36;99010.44;;;10.68;83.21
9969;BME280;5025;48.890;9.278;2023-03-20T00:37:01;99015.81;;;10.68;83.27
9969;BME280;5025;48.890;9.278;2023-03-20T00:39:26;99013.72;;;10.70;83.27
9969;BME280;5025;48.890;9.278;2023-03-20T00:41:56;99016.66;;;10.68;83.24
9969;BME280;5025;48.890;9.278;2023-03-20T00:44:38;99021.22;;;10.68;82.94
9969;BME280;5025;48.890;9.278;2023-03-20T00:47:21;99017.69;;;10.67;83.03
9969;BME280;5025;48.890;9.278;2023-03-20T00:49:49;99023.31;;;10.66;83.09
9969;BME280;5025;48.890;9.278;2023-03-20T00:52:16;99021.91;;;10.63;83.13
9969;BME280;5025;48.890;9.278;2023-03-20T00:54:42;99024.59;;;10.63;83.09
9969;BME280;5025;48.890;9.278;2023-03-20T00:57:13;99020.84;;;10.64;82.97
9969;BME280;5025;48.890;9.278;2023-03-20T01:02:15;99031.19;;;10.67;83.01
9969;BME280;5025;48.890;9.278;2023-03-20T01:04:41;99024.97;;;10.67;83.14
9969;BME280;5025;48.890;9.278;2023-03-20T01:07:10;99028.50;;;10.67;83.03
9969;BME280;5025;48.890;9.278;2023-03-20T01:09:36;99033.28;;;10.65;83.03
9969;BME280;5025;48.890;9.278;2023-03-20T01:12:02;99028.94;;;10.64;83.19
9969;BME280;5025;48.890;9.278;2023-03-20T01:14:28;99030.00;;;10.63;83.03
9969;BME280;5025;48.890;9.278;2023-03-20T01:16:53;99028.34;;;10.62;83.10
9969;BME280;5025;48.890;9.278;2023-03-20T01:19:18;99024.81;;;10.62;83.44
9969;BME280;5025;48.890;9.278;2023-03-20T01:21:44;99031.84;;;10.63;83.34
9969;BME280;5025;48.890;9.278;2023-03-20T01:24:09;99029.78;;;10.65;83.32
9969;BME280;5025;48.890;9.278;2023-03-20T01:26:40;99027.09;;;10.65;83.34
9969;BME280;5025;48.890;9.278;2023-03-20T01:29:23;99028.72;;;10.66;83.35
9969;BME280;5025;48.890;9.278;2023-03-20T01:31:50;99030.38;;;10.67;83.30
9969;BME280;5025;48.890;9.278;2023-03-20T01:34:16;99017.91;;;10.66;83.58
9969;BME280;5025;48.890;9.278;2023-03-20T01:36:49;99027.69;;;10.67;83.71
9969;BME280;5025;48.890;9.278;2023-03-20T01:39:15;99026.84;;;10.66;83.73
9969;BME280;5025;48.890;9.278;2023-03-20T01:41:41;99025.19;;;10.65;83.89
9969;BME280;5025;48.890;9.278;2023-03-20T01:44:27;99022.50;;;10.65;83.94
9969;BME280;5025;48.890;9.278;2023-03-20T01:46:52;99026.00;;;10.66;83.78
9969;BME280;5025;48.890;9.278;2023-03-20T01:51:43;99028.72;;;10.66;84.03
9969;BME280;5025;48.890;9.278;2023-03-20T01:54:16;99031.63;;;10.64;83.99
9969;BME280;5025;48.890;9.278;2023-03-20T01:56:47;99029.16;;;10.63;84.01
9969;BME280;5025;48.890;9.278;2023-03-20T01:59:27;99027.97;;;10.58;83.86
9969;BME280;5025;48.890;9.278;2023-03-20T02:01:53;99037.69;;;10.59;83.99
9969;BME280;5025;48.890;9.278;2023-03-20T02:04:21;99047.69;;;10.59;84.10
9969;BME280;5025;48.890;9.278;2023-03-20T02:06:48;99047.31;;;10.55;84.25
9969;BME280;5025;48.890;9.278;2023-03-20T02:09:13;99054.81;;;10.53;84.30
9969;BME280;5025;48.890;9.278;2023-03-20T02:11:40;99055.88;;;10.52;84.09
9969;BME280;5025;48.890;9.278;2023-03-20T02:14:08;99051.72;;;10.50;84.37
9969;BME280;5025;48.890;9.278;2023-03-20T02:16:33;99055.50;;;10.49;84.46
9969;BME280;5025;48.890;9.278;2023-03-20T02:18:59;99060.88;;;10.49;84.42
9969;BME280;5025;48.890;9.278;2023-03-20T02:21:35;99057.34;;;10.48;84.58
9969;BME280;5025;48.890;9.278;2023-03-20T02:27:10;99059.44;;;10.46;84.42
9969;BME280;5025;48.890;9.278;2023-03-20T02:35:21;99069.66;;;10.44;84.84
9969;BME280;5025;48.890;9.278;2023-03-20T02:38:02;99067.41;;;10.41;85.12
9969;BME280;5025;48.890;9.278;2023-03-20T02:40:36;99065.28;;;10.43;85.08
9969;BME280;5025;48.890;9.278;2023-03-20T02:48:45;99059.66;;;10.45;85.09
9969;BME280;5025;48.890;9.278;2023-03-20T02:51:26;99063.63;;;10.42;85.19
9969;BME280;5025;48.890;9.278;2023-03-20T02:54:04;99060.94;;;10.42;85.30
9969;BME280;5025;48.890;9.278;2023-03-20T02:57:01;99063.84;;;10.40;85.42
9969;BME280;5025;48.890;9.278;2023-03-20T03:02:04;99066.78;;;10.39;85.46
9969;BME280;5025;48.890;9.278;2023-03-20T03:04:38;99067.84;;;10.38;85.36
9969;BME280;5025;48.890;9.278;2023-03-20T03:07:07;99062.44;;;10.38;85.32
9969;BME280;5025;48.890;9.278;2023-03-20T03:10:34;99058.06;;;10.37;85.49
9969;BME280;5025;48.890;9.278;2023-03-20T03:12:31;99066.41;;;10.35;85.63
9969;BME280;5025;48.890;9.278;2023-03-20T03:15:03;99063.47;;;10.37;85.58
9969;BME280;5025;48.890;9.278;2023-03-20T03:17:33;99067.22;;;10.36;85.66
9969;BME280;5025;48.890;9.278;2023-03-20T03:20:08;99057.69;;;10.33;85.55
9969;BME280;5025;48.890;9.278;2023-03-20T03:22:38;99061.41;;;10.32;85.66
9969;BME280;5025;48.890;9.278;2023-03-20T03:25:04;99073.06;;;10.33;85.71
9969;BME280;5025;48.890;9.278;2023-03-20T03:27:36;99064.31;;;10.31;85.83
9969;BME280;5025;48.890;9.278;2023-03-20T03:32:38;99078.84;;;10.30;85.92
9969;BME280;5025;48.890;9.278;2023-03-20T03:35:06;99068.06;;;10.30;86.00
9969;BME280;5025;48.890;9.278;2023-03-20T03:43:33;99080.16;;;10.20;86.05
9969;BME280;5025;48.890;9.278;2023-03-20T03:46:06;99086.41;;;10.21;86.00
9969;BME280;5025;48.890;9.278;2023-03-20T03:48:39;99078.53;;;10.19;86.32
9969;BME280;5025;48.890;9.278;2023-03-20T03:51:11;99088.47;;;10.19;86.20
9969;BME280;5025;48.890;9.278;2023-03-20T03:53:48;99088.91;;;10.16;86.22
9969;BME280;5025;48.890;9.278;2023-03-20T03:56:20;99090.38;;;10.18;86.53
9969;BME280;5025;48.890;9.278;2023-03-20T03:58:51;99087.06;;;10.16;86.68
9969;BME280;5025;48.890;9.278;2023-03-20T04:01:19;99095.75;;;10.18;86.32
9969;BME280;5025;48.890;9.278;2023-03-20T04:03:48;99079.56;;;10.18;86.25
9969;BME280;5025;48.890;9.278;2023-03-20T04:06:15;99089.78;;;10.16;86.59
9969;BME280;5025;48.890;9.278;2023-03-20T04:08:42;99091.19;;;10.19;86.60
9969;BME280;5025;48.890;9.278;2023-03-20T04:11:13;99098.03;;;10.21;86.56
9969;BME280;5025;48.890;9.278;2023-03-20T04:13:39;99095.75;;;10.18;86.63
9969;BME280;5025;48.890;9.278;2023-03-20T04:16:05;99101.97;;;10.19;86.30
9969;BME280;5025;48.890;9.278;2023-03-20T04:18:31;99094.94;;;10.18;86.51
9969;BME280;5025;48.890;9.278;2023-03-20T04:20:56;99093.50;;;10.15;86.53
9969;BME280;5025;48.890;9.278;2023-03-20T04:23:21;99100.56;;;10.16;86.49
9969;BME280;5025;48.890;9.278;2023-03-20T04:25:46;99096.19;;;10.15;86.37
9969;BME280;5025;48.890;9.278;2023-03-20T04:28:12;99085.63;;;10.14;86.54
9969;BME280;5025;48.890;9.278;2023-03-20T04:30:40;99093.72;;;10.14;86.43
9969;BME280;5025;48.890;9.278;2023-03-20T04:33:05;99088.31;;;10.14;86.41
9969;BME280;5025;48.890;9.278;2023-03-20T04:35:31;99088.31;;;10.14;86.27
9969;BME280;5025;48.890;9.278;2023-03-20T04:37:56;99082.31;;;10.12;86.14
9969;BME280;5025;48.890;9.278;2023-03-20T04:40:21;99084.41;;;10.10;86.18
9969;BME280;5025;48.890;9.278;2023-03-20T04:42:47;99082.97;;;10.07;85.86
9969;BME280;5025;48.890;9.278;2023-03-20T04:45:12;99079.66;;;10.05;85.88
9969;BME280;5025;48.890;9.278;2023-03-20T04:47:37;99086.13;;;10.04;85.97
9969;BME280;5025;48.890;9.278;2023-03-20T04:50:03;99089.63;;;10.04;85.66
9969;BME280;5025;48.890;9.278;2023-03-20T04:52:28;99088.19;;;10.02;85.85
9969;BME280;5025;48.890;9.278;2023-03-20T04:54:54;99087.38;;;10.01;86.10
9969;BME280;5025;48.890;9.278;2023-03-20T04:57:19;99089.06;;;9.96;85.69
9969;BME280;5025;48.890;9.278;2023-03-20T04:59:44;99100.25;;;9.99;85.68
9969;BME280;5025;48.890;9.278;2023-03-20T05:02:09;99095.28;;;9.96;85.72
9969;BME280;5025;48.890;9.278;2023-03-20T05:04:39;99106.09;;;9.96;85.76
9969;BME280;5025;48.890;9.278;2023-03-20T05:07:04;99107.72;;;9.97;85.73
9969;BME280;5025;48.890;9.278;2023-03-20T05:09:30;99109.22;;;9.93;85.71
9969;BME280;5025;48.890;9.278;2023-03-20T05:11:55;99105.47;;;9.94;85.82
9969;BME280;5025;48.890;9.278;2023-03-20T05:14:20;99108.16;;;9.94;85.77
9969;BME280;5025;48.890;9.278;2023-03-20T05:16:46;99109.81;;;9.95;85.90
9969;BME280;5025;48.890;9.278;2023-03-20T05:19:11;99114.41;;;9.95;85.88
9969;BME280;5025;48.890;9.278;2023-03-20T05:21:36;99121.44;;;9.96;85.95
9969;BME280;5025;48.890;9.278;2023-03-20T05:24:02;99117.69;;;9.97;85.92
9969;BME280;5025;48.890;9.278;2023-03-20T05:26:27;99123.09;;;9.97;85.84
9969;BME280;5025;48.890;9.278;2023-03-20T05:28:52;99126.81;;;9.96;85.87
9969;BME280;5025;48.890;9.278;2023-03-20T05:31:17;99127.88;;;9.95;86.04
9969;BME280;5025;48.890;9.278;2023-03-20T05:33:43;99126.81;;;9.96;85.96
9969;BME280;5025;48.890;9.278;2023-03-20T05:36:08;99119.78;;;9.95;85.84
9969;BME280;5025;48.890;9.278;2023-03-20T05:38:34;99122.94;;;9.92;85.89
9969;BME280;5025;48.890;9.278;2023-03-20T05:41:00;99113.59;;;9.87;85.80
9969;BME280;5025;48.890;9.278;2023-03-20T05:43:25;99118.78;;;9.89;86.10
9969;BME280;5025;48.890;9.278;2023-03-20T05:45:53;99112.56;;;9.89;86.13
9969;BME280;5025;48.890;9.278;2023-03-20T05:48:18;99121.25;;;9.91;85.88
9969;BME280;5025;48.890;9.278;2023-03-20T05:50:43;99119.38;;;9.91;86.01
9969;BME280;5025;48.890;9.278;2023-03-20T05:53:09;99129.94;;;9.93;85.94
9969;BME280;5025;48.890;9.278;2023-03-20T05:55:34;99130.59;;;9.95;85.87
9969;BME280;5025;48.890;9.278;2023-03-20T05:58:00;99120.81;;;9.94;85.46
9969;BME280;5025;48.890;9.278;2023-03-20T06:00:25;99132.22;;;9.96;85.59
9969;BME280;5025;48.890;9.278;2023-03-20T06:02:51;99137.63;;;9.96;85.52
9969;BME280;5025;48.890;9.278;2023-03-20T06:05:16;99140.31;;;9.96;85.53
9969;BME280;5025;48.890;9.278;2023-03-20T06:07:42;99144.69;;;9.97;85.35
9969;BME280;5025;48.890;9.278;2023-03-20T06:10:08;99143.00;;;9.96;85.35
9969;BME280;5025;48.890;9.278;2023-03-20T06:12:33;99140.31;;;9.96;85.16
9969;BME280;5025;48.890;9.278;2023-03-20T06:14:58;99146.34;;;9.98;84.84
9969;BME280;5025;48.890;9.278;2023-03-20T06:17:24;99149.84;;;9.98;84.90
9969;BME280;5025;48.890;9.278;2023-03-20T06:19:50;99145.72;;;9.96;84.73
9969;BME280;5025;48.890;9.278;2023-03-20T06:22:15;99144.69;;;9.97;84.97
9969;BME280;5025;48.890;9.278;2023-03-20T06:24:40;99154.66;;;9.96;84.71
9969;BME280;5025;48.890;9.278;2023-03-20T06:27:07;99154.22;;;9.93;84.30
9969;BME280;5025;48.890;9.278;2023-03-20T06:29:32;99145.53;;;9.91;84.75
9969;BME280;5025;48.890;9.278;2023-03-20T06:31:58;99149.25;;;9.90;84.65
9969;BME280;5025;48.890;9.278;2023-03-20T06:34:23;99147.19;;;9.92;84.67
9969;BME280;5025;48.890;9.278;2023-03-20T06:36:48;99146.78;;;9.95;84.74
9969;BME280;5025;48.890;9.278;2023-03-20T06:39:14;99143.84;;;9.96;84.30
9969;BME280;5025;48.890;9.278;2023-03-20T06:41:39;99138.25;;;9.98;84.46
9969;BME280;5025;48.890;9.278;2023-03-20T06:44:05;99143.84;;;9.96;84.19
9969;BME280;5025;48.890;9.278;2023-03-20T06:46:30;99140.31;;;9.96;84.15
9969;BME280;5025;48.890;9.278;2023-03-20T06:48:56;99135.56;;;9.98;84.26
9969;BME280;5025;48.890;9.278;2023-03-20T06:51:21;99136.78;;;9.95;84.39
9969;BME280;5025;48.890;9.278;2023-03-20T06:53:46;99137.41;;;9.97;84.20
9969;BME280;5025;48.890;9.278;2023-03-20T06:56:11;99133.06;;;9.96;84.22
9969;BME280;5025;48.890;9.278;2023-03-20T06:58:37;99144.25;;;10.00;84.14
9969;BME280;5025;48.890;9.278;2023-03-20T07:01:10;99146.50;;;10.03;84.11
9969;BME280;5025;48.890;9.278;2023-03-20T07:03:37;99150.88;;;10.04;84.18
9969;BME280;5025;48.890;9.278;2023-03-20T07:06:02;99156.66;;;10.08;84.02
9969;BME280;5025;48.890;9.278;2023-03-20T07:08:28;99143.53;;;10.11;84.16
9969;BME280;5025;48.890;9.278;2023-03-20T07:10:53;99153.09;;;10.14;84.11
9969;BME280;5025;48.890;9.278;2023-03-20T07:13:19;99158.28;;;10.15;84.02
9969;BME280;5025;48.890;9.278;2023-03-20T07:15:44;99163.88;;;10.14;83.94
9969;BME280;5025;48.890;9.278;2023-03-20T07:18:10;99169.50;;;10.12;84.20
9969;BME280;5025;48.890;9.278;2023-03-20T07:20:35;99184.47;;;10.08;84.17
9969;BME280;5025;48.890;9.278;2023-03-20T07:23:01;99182.59;;;10.09;84.41
9969;BME280;5025;48.890;9.278;2023-03-20T07:25:26;99181.59;;;10.03;84.69
9969;BME280;5025;48.890;9.278;2023-03-20T07:27:51;99181.53;;;10.10;84.58
9969;BME280;5025;48.890;9.278;2023-03-20T07:30:17;99182.78;;;10.14;84.32
9969;BME280;5025;48.890;9.278;2023-03-20T07:32:43;99184.22;;;10.16;84.36
9969;BME280;5025;48.890;9.278;2023-03-20T07:35:09;99183.16;;;10.17;84.32
9969;BME280;5025;48.890;9.278;2023-03-20T07:37:34;99186.94;;;10.16;83.90
9969;BME280;5025;48.890;9.278;2023-03-20T07:40:00;99174.63;;;10.20;83.87
9969;BME280;5025;48.890;9.278;2023-03-20T07:42:25;99183.16;;;10.24;83.90
9969;BME280;5025;48.890;9.278;2023-03-20T07:44:51;99181.66;;;10.28;83.88
9969;BME280;5025;48.890;9.278;2023-03-20T07:47:16;99184.75;;;10.32;84.03
9969;BME280;5025;48.890;9.278;2023-03-20T07:49:42;99176.47;;;10.33;83.72
9969;BME280;5025;48.890;9.278;2023-03-20T07:52:07;99176.84;;;10.37;83.49
9969;BME280;5025;48.890;9.278;2023-03-20T07:54:32;99185.19;;;10.35;83.54
9969;BME280;5025;48.890;9.278;2023-03-20T07:56:58;99178.53;;;10.38;83.84
9969;BME280;5025;48.890;9.278;2023-03-20T07:59:23;99174.94;;;10.44;83.50
9969;BME280;5025;48.890;9.278;2023-03-20T08:01:49;99169.94;;;10.48;83.39
9969;BME280;5025;48.890;9.278;2023-03-20T08:04:14;99176.34;;;10.53;83.32
9969;BME280;5025;48.890;9.278;2023-03-20T08:06:43;99181.50;;;10.55;83.24
9969;BME280;5025;48.890;9.278;2023-03-20T08:09:08;99175.06;;;10.56;83.24
9969;BME280;5025;48.890;9.278;2023-03-20T08:11:34;99180.63;;;10.61;83.30
9969;BME280;5025;48.890;9.278;2023-03-20T08:13:59;99184.09;;;10.68;83.12
9969;BME280;5025;48.890;9.278;2023-03-20T08:16:24;99193.03;;;10.69;82.78
9969;BME280;5025;48.890;9.278;2023-03-20T08:18:50;99179.97;;;10.66;82.69
9969;BME280;5025;48.890;9.278;2023-03-20T08:21:17;99181.69;;;10.60;82.68
9969;BME280;5025;48.890;9.278;2023-03-20T08:23:43;99192.72;;;10.58;82.78
9969;BME280;5025;48.890;9.278;2023-03-20T08:26:08;99188.72;;;10.61;82.42
9969;BME280;5025;48.890;9.278;2023-03-20T08:28:33;99192.06;;;10.56;81.69
9969;BME280;5025;48.890;9.278;2023-03-20T08:30:58;99185.47;;;10.52;81.25
9969;BME280;5025;48.890;9.278;2023-03-20T08:33:24;99187.09;;;10.60;81.44
9969;BME280;5025;48.890;9.278;2023-03-20T08:35:57;99185.19;;;10.61;80.87
9969;BME280;5025;48.890;9.278;2023-03-20T08:38:23;99187.97;;;10.54;80.37
9969;BME280;5025;48.890;9.278;2023-03-20T08:40:48;99191.19;;;10.37;79.67
9969;BME280;5025;48.890;9.278;2023-03-20T08:43:14;99194.09;;;10.36;79.22
9969;BME280;5025;48.890;9.278;2023-03-20T08:45:39;99195.91;;;10.42;79.19
9969;BME280;5025;48.890;9.278;2023-03-20T08:48:05;99187.75;;;10.55;78.49
9969;BME280;5025;48.890;9.278;2023-03-20T08:50:31;99179.59;;;10.62;78.35
9969;BME280;5025;48.890;9.278;2023-03-20T08:52:57;99186.97;;;10.73;77.85
9969;BME280;5025;48.890;9.278;2023-03-20T08:55:22;99185.88;;;10.81;77.79
9969;BME280;5025;48.890;9.278;2023-03-20T08:57:47;99188.53;;;10.88;77.75
9969;BME280;5025;48.890;9.278;2023-03-20T09:00:14;99188.69;;;10.93;77.53
9969;BME280;5025;48.890;9.278;2023-03-20T09:02:41;99181.38;;;11.00;77.28
9969;BME280;5025;48.890;9.278;2023-03-20T09:05:07;99190.00;;;11.09;76.82
9969;BME280;5025;48.890;9.278;2023-03-20T09:07:33;99188.88;;;11.17;76.50
9969;BME280;5025;48.890;9.278;2023-03-20T09:09:58;99190.69;;;11.23;76.18
9969;BME280;5025;48.890;9.278;2023-03-20T09:12:23;99186.72;;;11.25;76.08
9969;BME280;5025;48.890;9.278;2023-03-20T09:14:49;99194.53;;;11.34;75.96
9969;BME280;5025;48.890;9.278;2023-03-20T09:17:14;99196.44;;;11.33;75.51
9969;BME280;5025;48.890;9.278;2023-03-20T09:19:40;99185.13;;;11.18;72.89
9969;BME280;5025;48.890;9.278;2023-03-20T09:22:08;99188.06;;;11.16;72.15
9969;BME280;5025;48.890;9.278;2023-03-20T09:24:35;99200.75;;;11.16;71.65
9969;BME280;5025;48.890;9.278;2023-03-20T09:27:00;99198.03;;;10.97;70.67
9969;BME280;5025;48.890;9.278;2023-03-20T09:29:26;99198.16;;;11.02;70.82
9969;BME280;5025;48.890;9.278;2023-03-20T09:31:54;99195.13;;;10.92;70.40
9969;BME280;5025;48.890;9.278;2023-03-20T09:34:19;99190.13;;;10.96;70.20
9969;BME280;5025;48.890;9.278;2023-03-20T09:36:45;99195.41;;;11.09;70.36
9969;BME280;5025;48.890;9.278;2023-03-20T09:39:10;99197.91;;;11.29;70.09
9969;BME280;5025;48.890;9.278;2023-03-20T09:41:36;99197.03;;;11.35;69.61
9969;BME280;5025;48.890;9.278;2023-03-20T09:44:11;99195.91;;;11.43;69.20
9969;BME280;5025;48.890;9.278;2023-03-20T09:46:57;99190.91;;;11.46;69.01
9969;BME280;5025;48.890;9.278;2023-03-20T09:49:50;99193.59;;;11.46;68.58
9969;BME280;5025;48.890;9.278;2023-03-20T09:52:29;99195.31;;;11.41;68.34
9969;BME280;5025;48.890;9.278;2023-03-20T09:54:59;99199.59;;;11.48;68.71
9969;BME280;5025;48.890;9.278;2023-03-20T09:57:29;99199.50;;;11.55;68.88
9969;BME280;5025;48.890;9.278;2023-03-20T10:00:03;99190.91;;;11.65;68.33
9969;BME280;5025;48.890;9.278;2023-03-20T10:02:58;99194.97;;;11.74;68.15
9969;BME280;5025;48.890;9.278;2023-03-20T10:05:30;99196.38;;;11.77;68.65
9969;BME280;5025;48.890;9.278;2023-03-20T10:08:00;99196.97;;;11.79;69.75
9969;BME280;5025;48.890;9.278;2023-03-20T10:10:41;99202.31;;;11.86;69.82
9969;BME280;5025;48.890;9.278;2023-03-20T10:13:40;99204.78;;;11.87;69.80
9969;BME280;5025;48.890;9.278;2023-03-20T10:21:38;99204.03;;;11.61;67.46
9969;BME280;5025;48.890;9.278;2023-03-20T10:24:14;99201.03;;;11.51;67.78
9969;BME280;5025;48.890;9.278;2023-03-20T10:26:45;99203.97;;;11.68;68.03
9969;BME280;5025;48.890;9.278;2023-03-20T10:29:37;99203.53;;;11.71;67.22
9969;BME280;5025;48.890;9.278;2023-03-20T10:32:28;99198.56;;;11.68;66.83
9969;BME280;5025;48.890;9.278;2023-03-20T10:35:12;99205.59;;;11.69;67.20
9969;BME280;5025;48.890;9.278;2023-03-20T10:38:08;99210.72;;;11.59;67.04
9969;BME280;5025;48.890;9.278;2023-03-20T10:40:39;99202.59;;;11.40;66.97
9969;BME280;5025;48.890;9.278;2023-03-20T10:43:30;99183.91;;;11.57;66.84
9969;BME280;5025;48.890;9.278;2023-03-20T10:46:03;99193.06;;;11.56;67.70
9969;BME280;5025;48.890;9.278;2023-03-20T10:48:38;99195.00;;;11.49;68.88
9969;BME280;5025;48.890;9.278;2023-03-20T10:51:12;99193.06;;;11.56;68.74
9969;BME280;5025;48.890;9.278;2023-03-20T10:53:47;99188.66;;;11.62;68.28
9969;BME280;5025;48.890;9.278;2023-03-20T10:56:21;99186.97;;;11.42;68.41
9969;BME280;5025;48.890;9.278;2023-03-20T10:58:57;99186.38;;;11.40;68.09
9969;BME280;5025;48.890;9.278;2023-03-20T11:01:23;99183.72;;;11.34;69.05
9969;BME280;5025;48.890;9.278;2023-03-20T11:03:48;99181.91;;;11.27;68.59
9969;BME280;5025;48.890;9.278;2023-03-20T11:06:21;99177.41;;;11.21;69.04
9969;BME280;5025;48.890;9.278;2023-03-20T11:08:51;99178.47;;;11.20;69.69
9969;BME280;5025;48.890;9.278;2023-03-20T11:11:24;99185.69;;;11.26;70.00
9969;BME280;5025;48.890;9.278;2023-03-20T11:13:50;99187.97;;;11.48;70.27
9969;BME280;5025;48.890;9.278;2023-03-20T11:18:49;99192.31;;;11.49;68.78
9969;BME280;5025;48.890;9.278;2023-03-20T11:21:24;99184.28;;;11.61;69.36
9969;BME280;5025;48.890;9.278;2023-03-20T11:23:50;99185.41;;;11.72;69.17
9969;BME280;5025;48.890;9.278;2023-03-20T11:26:19;99191.03;;;11.89;68.69
9969;BME280;5025;48.890;9.278;2023-03-20T11:28:54;99191.25;;;11.87;67.69
9969;BME280;5025;48.890;9.278;2023-03-20T11:31:30;99190.28;;;11.81;66.45
9969;BME280;5025;48.890;9.278;2023-03-20T11:36:29;99185.41;;;11.53;67.01
9969;BME280;5025;48.890;9.278;2023-03-20T11:39:01;99182.78;;;11.65;67.50
9969;BME280;5025;48.890;9.278;2023-03-20T11:41:29;99179.47;;;11.63;67.58
9969;BME280;5025;48.890;9.278;2023-03-20T11:43:55;99186.91;;;11.49;67.29
9969;BME280;5025;48.890;9.278;2023-03-20T11:46:22;99184.50;;;11.59;68.06
9969;BME280;5025;48.890;9.278;2023-03-20T11:49:02;99179.09;;;11.59;66.49
9969;BME280;5025;48.890;9.278;2023-03-20T11:51:28;99180.91;;;11.47;64.80
9969;BME280;5025;48.890;9.278;2023-03-20T11:54:00;99176.53;;;11.46;65.72
9969;BME280;5025;48.890;9.278;2023-03-20T11:56:28;99179.22;;;11.64;65.18
9969;BME280;5025;48.890;9.278;2023-03-20T12:01:46;99181.84;;;12.08;63.77
9969;BME280;5025;48.890;9.278;2023-03-20T12:04:26;99180.84;;;12.21;62.93
9969;BME280;5025;48.890;9.278;2023-03-20T12:06:56;99174.75;;;12.37;62.74
9969;BME280;5025;48.890;9.278;2023-03-20T12:09:37;99178.09;;;12.51;62.71
9969;BME280;5025;48.890;9.278;2023-03-20T12:12:42;99182.34;;;12.17;58.67
9969;BME280;5025;48.890;9.278;2023-03-20T12:17:49;99174.25;;;11.80;60.36
9969;BME280;5025;48.890;9.278;2023-03-20T12:23:11;99166.56;;;11.65;60.24
9969;BME280;5025;48.890;9.278;2023-03-20T12:25:43;99172.19;;;11.82;60.44
9969;BME280;5025;48.890;9.278;2023-03-20T12:28:17;99154.06;;;11.82;59.64
9969;BME280;5025;48.890;9.278;2023-03-20T12:31:06;99160.91;;;11.85;59.37
9969;BME280;5025;48.890;9.278;2023-03-20T12:33:42;99142.91;;;11.91;58.78
9969;BME280;5025;48.890;9.278;2023-03-20T12:36:16;99133.03;;;12.15;59.52
9969;BME280;5025;48.890;9.278;2023-03-20T12:38:43;99138.84;;;12.30;58.54
9969;BME280;5025;48.890;9.278;2023-03-20T12:44:19;99143.16;;;12.62;58.18
9969;BME280;5025;48.890;9.278;2023-03-20T12:52:32;99128.53;;;12.51;58.01
9969;BME280;5025;48.890;9.278;2023-03-20T12:58:08;99122.19;;;12.69;57.75
9969;BME280;5025;48.890;9.278;2023-03-20T13:01:17;99119.84;;;12.72;57.24
9969;BME280;5025;48.890;9.278;2023-03-20T13:07:08;99111.22;;;12.52;57.47
9969;BME280;5025;48.890;9.278;2023-03-20T13:15:35;99103.81;;;12.83;57.15
9969;BME280;5025;48.890;9.278;2023-03-20T13:20:50;99102.63;;;13.02;57.07
9969;BME280;5025;48.890;9.278;2023-03-20T13:23:21;99111.47;;;13.09;56.33
9969;BME280;5025;48.890;9.278;2023-03-20T13:25:51;99099.44;;;13.17;55.80
9969;BME280;5025;48.890;9.278;2023-03-20T13:37:18;99087.69;;;13.52;55.32
9969;BME280;5025;48.890;9.278;2023-03-20T13:42:21;99083.59;;;13.50;55.24
9969;BME280;5025;48.890;9.278;2023-03-20T13:44:48;99074.41;;;13.79;55.01
9969;BME280;5025;48.890;9.278;2023-03-20T13:47:22;99072.00;;;13.83;53.87
9969;BME280;5025;48.890;9.278;2023-03-20T13:52:39;99069.06;;;13.85;53.87
9969;BME280;5025;48.890;9.278;2023-03-20T13:55:23;99067.50;;;13.60;53.63
9969;BME280;5025;48.890;9.278;2023-03-20T13:58:16;99068.59;;;13.59;53.80
9969;BME280;5025;48.890;9.278;2023-03-20T14:00:54;99057.63;;;13.54;53.50
9969;BME280;5025;48.890;9.278;2023-03-20T14:03:26;99061.28;;;13.48;53.72
9969;BME280;5025;48.890;9.278;2023-03-20T14:05:53;99058.97;;;13.39;53.95
9969;BME280;5025;48.890;9.278;2023-03-20T14:10:47;99065.09;;;13.47;53.79
9969;BME280;5025;48.890;9.278;2023-03-20T14:13:18;99050.06;;;13.56;53.67
9969;BME280;5025;48.890;9.278;2023-03-20T14:15:48;99055.03;;;13.47;53.82
9969;BME280;5025;48.890;9.278;2023-03-20T14:18:16;99063.25;;;13.12;53.56
9969;BME280;5025;48.890;9.278;2023-03-20T14:20:43;99056.91;;;13.06;54.20
9969;BME280;5025;48.890;9.278;2023-03-20T14:23:20;99058.44;;;13.02;54.15
9969;BME280;5025;48.890;9.278;2023-03-20T14:25:53;99058.09;;;12.98;54.06
9969;BME280;5025;48.890;9.278;2023-03-20T14:30:46;99051.72;;;13.04;53.92
9969;BME280;5025;48.890;9.278;2023-03-20T14:35:42;99051.06;;;13.26;53.70
9969;BME280;5025;48.890;9.278;2023-03-20T14:38:29;99046.97;;;13.12;53.10
9969;BME280;5025;48.890;9.278;2023-03-20T14:41:14;99053.47;;;12.99;53.73
9969;BME280;5025;48.890;9.278;2023-03-20T14:46:47;99050.16;;;13.08;53.73
9969;BME280;5025;48.890;9.278;2023-03-20T14:49:47;99045.44;;;13.16;53.58
9969;BME280;5025;48.890;9.278;2023-03-20T14:52:20;99049.44;;;13.25;53.52
9969;BME280;5025;48.890;9.278;2023-03-20T14:54:54;99043.41;;;13.23;53.08
9969;BME280;5025;48.890;9.278;2023-03-20T14:57:37;99045.69;;;13.14;53.09
9969;BME280;5025;48.890;9.278;2023-03-20T15:00:03;99038.84;;;13.12;53.14
9969;BME280;5025;48.890;9.278;2023-03-20T15:02:34;99045.78;;;13.19;52.99
9969;BME280;5025;48.890;9.278;2023-03-20T15:05:00;99047.88;;;13.29;53.09
9969;BME280;5025;48.890;9.278;2023-03-20T15:07:29;99036.31;;;13.34;52.93
9969;BME280;5025;48.890;9.278;2023-03-20T15:09:59;99031.13;;;13.32;53.25
9969;BME280;5025;48.890;9.278;2023-03-20T15:12:30;99026.16;;;13.29;53.41
9969;BME280;5025;48.890;9.278;2023-03-20T15:15:04;99029.66;;;13.13;53.27
9969;BME280;5025;48.890;9.278;2023-03-20T15:17:36;99031.66;;;13.17;53.74